createdAt,value
2023-02-27T00:00:35.949Z,5.92
2023-02-27T00:02:40.740Z,5.91
2023-02-27T00:04:48.018Z,5.90
2023-02-27T00:06:52.495Z,5.87
2023-02-27T00:08:57.213Z,5.85
2023-02-27T00:11:01.699Z,5.84
2023-02-27T00:13:06.121Z,5.85
2023-02-27T00:15:11.568Z,5.85
2023-02-27T00:17:16.581Z,5.85
2023-02-27T00:19:21.814Z,5.84
2023-02-27T00:21:28.985Z,5.83
2023-02-27T00:23:33.490Z,5.82
2023-02-27T00:25:38.207Z,5.83
2023-02-27T00:27:42.948Z,5.80
2023-02-27T00:29:47.612Z,5.79
2023-02-27T00:31:52.152Z,5.78
2023-02-27T00:33:56.671Z,5.80
2023-02-27T00:36:01.826Z,5.79
2023-02-27T00:38:08.864Z,5.79
2023-02-27T00:40:14.209Z,5.79
2023-02-27T00:42:18.974Z,5.77
2023-02-27T00:44:24.110Z,5.77
2023-02-27T00:46:28.616Z,5.76
2023-02-27T00:48:33.076Z,5.77
2023-02-27T00:50:39.094Z,5.77
2023-02-27T00:52:43.837Z,5.79
2023-02-27T00:54:50.984Z,5.79
2023-02-27T00:56:55.443Z,5.79
2023-02-27T00:58:59.801Z,5.79
2023-02-27T01:01:04.239Z,5.82
2023-02-27T01:03:08.765Z,5.83
2023-02-27T01:05:13.398Z,5.81
2023-02-27T01:07:17.976Z,5.79
2023-02-27T01:09:22.345Z,5.81
2023-02-27T01:11:29.581Z,5.81
2023-02-27T01:13:34.062Z,5.83
2023-02-27T01:15:38.461Z,5.84
2023-02-27T01:17:43.165Z,5.85
2023-02-27T01:19:47.898Z,5.83
2023-02-27T01:21:52.556Z,5.84
2023-02-27T01:23:58.628Z,5.82
2023-02-27T01:26:03.061Z,5.82
2023-02-27T01:28:10.180Z,5.83
2023-02-27T01:30:16.323Z,5.83
2023-02-27T01:32:22.682Z,5.83
2023-02-27T01:34:27.151Z,5.82
2023-02-27T01:36:31.733Z,5.82
2023-02-27T01:38:36.157Z,5.81
2023-02-27T01:40:41.144Z,5.81
2023-02-27T01:42:46.749Z,5.82
2023-02-27T01:45:06.557Z,5.84
2023-02-27T01:47:13.754Z,5.85
2023-02-27T01:49:21.044Z,5.83
2023-02-27T01:51:25.987Z,5.81
2023-02-27T01:53:31.782Z,5.82
2023-02-27T01:55:39.925Z,5.80
2023-02-27T01:57:47.601Z,5.80
2023-02-27T01:59:52.693Z,5.81
2023-02-27T02:01:57.231Z,5.82
2023-02-27T02:04:08.503Z,5.82
2023-02-27T02:06:14.197Z,5.83
2023-02-27T02:08:21.267Z,5.82
2023-02-27T02:10:25.766Z,5.83
2023-02-27T02:12:31.652Z,5.83
2023-02-27T02:14:36.129Z,5.82
2023-02-27T02:16:47.617Z,5.82
2023-02-27T02:18:55.766Z,5.83
2023-02-27T02:21:29.978Z,5.81
2023-02-27T02:23:49.644Z,5.80
2023-02-27T02:26:08.505Z,5.82
2023-02-27T02:28:19.305Z,5.82
2023-02-27T02:30:44.414Z,5.83
2023-02-27T02:33:12.701Z,5.83
2023-02-27T02:35:33.563Z,5.84
2023-02-27T02:38:04.382Z,5.84
2023-02-27T02:40:27.209Z,5.83
2023-02-27T02:42:37.956Z,5.83
2023-02-27T02:44:46.944Z,5.83
2023-02-27T02:46:54.998Z,5.83
2023-02-27T02:49:04.326Z,5.83
2023-02-27T02:51:12.352Z,5.84
2023-02-27T02:53:21.643Z,5.84
2023-02-27T02:55:29.181Z,5.85
2023-02-27T02:57:40.371Z,5.85
2023-02-27T02:59:47.856Z,5.88
2023-02-27T03:01:55.678Z,5.88
2023-02-27T03:04:02.119Z,5.87
2023-02-27T03:06:09.699Z,5.85
2023-02-27T03:08:17.336Z,5.83
2023-02-27T03:10:23.842Z,5.83
2023-02-27T03:12:30.382Z,5.83
2023-02-27T03:14:39.570Z,5.84
2023-02-27T03:16:45.425Z,5.83
2023-02-27T03:18:53.022Z,5.83
2023-02-27T03:20:58.887Z,5.81
2023-02-27T03:23:08.313Z,5.81
2023-02-27T03:25:14.305Z,5.79
2023-02-27T03:27:25.223Z,5.78
2023-02-27T03:29:33.085Z,5.80
2023-02-27T03:31:44.009Z,5.80
2023-02-27T03:33:51.357Z,5.80
2023-02-27T03:36:00.481Z,5.80
2023-02-27T03:38:09.566Z,5.81
2023-02-27T03:40:19.338Z,5.80
2023-02-27T03:42:28.950Z,5.79
2023-02-27T03:44:52.494Z,5.79
2023-02-27T03:46:59.749Z,5.80
2023-02-27T03:49:04.185Z,5.80
2023-02-27T03:51:09.750Z,5.79
2023-02-27T03:53:18.000Z,5.77
2023-02-27T03:55:24.503Z,5.79
2023-02-27T03:57:29.616Z,5.80
2023-02-27T03:59:34.643Z,5.83
2023-02-27T04:01:39.508Z,5.82
2023-02-27T04:03:50.848Z,5.85
2023-02-27T04:06:22.409Z,5.85
2023-02-27T04:08:40.393Z,5.85
2023-02-27T04:10:54.352Z,5.86
2023-02-27T04:13:06.181Z,5.85
2023-02-27T04:15:16.392Z,5.83
2023-02-27T04:17:25.343Z,5.82
2023-02-27T04:19:41.554Z,5.82
2023-02-27T04:21:51.289Z,5.83
2023-02-27T04:24:00.736Z,5.82
2023-02-27T04:26:14.927Z,5.82
2023-02-27T04:28:20.328Z,5.82
2023-02-27T04:30:28.536Z,5.81
2023-02-27T04:32:36.177Z,5.80
2023-02-27T04:34:45.731Z,5.80
2023-02-27T04:36:53.281Z,5.79
2023-02-27T04:39:01.541Z,5.79
2023-02-27T04:41:08.614Z,5.78
2023-02-27T04:43:15.237Z,5.79
2023-02-27T04:45:21.482Z,5.79
2023-02-27T04:47:28.000Z,5.81
2023-02-27T04:49:34.385Z,5.82
2023-02-27T04:51:45.558Z,5.80
2023-02-27T04:53:51.569Z,5.79
2023-02-27T04:55:58.037Z,5.79
2023-02-27T04:58:04.703Z,5.75
2023-02-27T05:00:13.965Z,5.73
2023-02-27T05:02:24.973Z,5.71
2023-02-27T05:04:30.810Z,5.69
2023-02-27T05:06:37.407Z,5.68
2023-02-27T05:08:45.945Z,5.68
2023-02-27T05:10:53.877Z,5.66
2023-02-27T05:13:01.299Z,5.66
2023-02-27T05:15:08.814Z,5.63
2023-02-27T05:17:17.918Z,5.60
2023-02-27T05:19:23.456Z,5.56
2023-02-27T05:21:30.768Z,5.55
2023-02-27T05:23:39.508Z,5.56
2023-02-27T05:25:49.587Z,5.55
2023-02-27T05:27:55.496Z,5.56
2023-02-27T05:30:02.376Z,5.55
2023-02-27T05:32:10.138Z,5.56
2023-02-27T05:34:20.595Z,5.56
2023-02-27T05:36:28.044Z,5.58
2023-02-27T05:38:34.749Z,5.59
2023-02-27T05:40:40.393Z,5.57
2023-02-27T05:42:50.281Z,5.56
2023-02-27T05:44:57.043Z,5.59
2023-02-27T05:47:02.772Z,5.60
2023-02-27T05:49:08.815Z,5.61
2023-02-27T05:51:14.599Z,5.60
2023-02-27T05:53:21.547Z,5.61
2023-02-27T05:55:28.196Z,5.58
2023-02-27T05:57:35.622Z,5.57
2023-02-27T05:59:46.666Z,5.58
2023-02-27T06:01:51.648Z,5.58
2023-02-27T06:03:59.034Z,5.57
2023-02-27T06:06:05.031Z,5.55
2023-02-27T06:08:09.740Z,5.55
2023-02-27T06:10:16.709Z,5.54
2023-02-27T06:12:21.923Z,5.55
2023-02-27T06:14:26.551Z,5.56
2023-02-27T06:16:33.864Z,5.55
2023-02-27T06:18:38.263Z,5.52
2023-02-27T06:20:43.125Z,5.52
2023-02-27T06:22:48.107Z,5.51
2023-02-27T06:25:00.807Z,5.50
2023-02-27T06:27:05.389Z,5.51
2023-02-27T06:29:12.004Z,5.52
2023-02-27T06:31:16.942Z,5.53
2023-02-27T06:33:24.907Z,5.54
2023-02-27T06:35:29.368Z,5.55
2023-02-27T06:37:33.959Z,5.54
2023-02-27T06:39:38.362Z,5.53
2023-02-27T06:41:42.800Z,5.54
2023-02-27T06:43:47.184Z,5.55
2023-02-27T06:45:51.784Z,5.56
2023-02-27T06:47:56.207Z,5.59
2023-02-27T06:50:04.223Z,5.62
2023-02-27T06:52:08.705Z,5.64
2023-02-27T06:54:13.095Z,5.62
2023-02-27T06:56:17.992Z,5.62
2023-02-27T06:58:25.979Z,5.64
2023-02-27T07:00:30.686Z,5.66
2023-02-27T07:02:35.681Z,5.68
2023-02-27T07:04:40.409Z,5.68
2023-02-27T07:07:34.046Z,5.70
2023-02-27T07:09:12.392Z,5.71
2023-02-27T07:11:16.995Z,5.73
2023-02-27T07:13:21.761Z,5.75
2023-02-27T07:15:26.689Z,5.77
2023-02-27T07:17:31.963Z,5.79
2023-02-27T07:19:37.248Z,5.82
2023-02-27T07:21:41.734Z,5.81
2023-02-27T07:23:48.772Z,5.81
2023-02-27T07:25:53.161Z,5.83
2023-02-27T07:27:57.557Z,5.87
2023-02-27T07:30:02.246Z,5.91
2023-02-27T07:32:06.980Z,5.93
2023-02-27T07:34:13.164Z,5.93
2023-02-27T07:36:17.963Z,5.95
2023-02-27T07:38:24.102Z,5.98
2023-02-27T07:40:31.712Z,6.02
2023-02-27T07:42:36.173Z,6.06
2023-02-27T07:44:40.807Z,6.13
2023-02-27T07:46:47.093Z,6.19
2023-02-27T07:48:52.056Z,6.21
2023-02-27T07:50:56.556Z,6.18
2023-02-27T07:53:01.092Z,6.17
2023-02-27T07:55:05.506Z,6.16
2023-02-27T07:57:12.517Z,6.14
2023-02-27T07:59:16.819Z,6.13
2023-02-27T08:01:21.264Z,6.14
2023-02-27T08:03:25.628Z,6.16
2023-02-27T08:05:30.052Z,6.20
2023-02-27T08:07:34.424Z,6.21
2023-02-27T08:09:38.741Z,6.26
2023-02-27T08:11:43.056Z,6.29
2023-02-27T08:14:05.662Z,6.29
2023-02-27T08:16:10.768Z,6.31
2023-02-27T08:18:15.235Z,6.31
2023-02-27T08:20:22.690Z,6.33
2023-02-27T08:22:27.230Z,6.31
2023-02-27T08:24:32.030Z,6.35
2023-02-27T08:26:36.479Z,6.42
2023-02-27T08:28:41.168Z,6.46
2023-02-27T08:30:48.133Z,6.51
2023-02-27T08:32:53.093Z,6.57
2023-02-27T08:34:57.635Z,6.64
2023-02-27T08:37:02.097Z,6.72
2023-02-27T08:39:06.915Z,6.78
2023-02-27T08:41:12.052Z,6.80
2023-02-27T08:43:16.553Z,6.83
2023-02-27T08:45:20.929Z,6.84
2023-02-27T08:47:27.948Z,6.88
2023-02-27T08:49:32.283Z,6.94
2023-02-27T08:51:36.680Z,6.96
2023-02-27T08:53:41.189Z,7.00
2023-02-27T08:55:45.852Z,7.04
2023-02-27T08:57:50.311Z,7.10
2023-02-27T08:59:54.708Z,7.15
2023-02-27T09:01:59.261Z,7.23
2023-02-27T09:04:07.959Z,7.28
2023-02-27T09:06:12.750Z,7.33
2023-02-27T09:08:17.596Z,7.39
2023-02-27T09:10:22.734Z,7.45
2023-02-27T09:12:27.152Z,7.53
2023-02-27T09:14:31.883Z,7.57
2023-02-27T09:16:36.422Z,7.60
2023-02-27T09:18:40.795Z,7.66
2023-02-27T09:20:48.314Z,7.75
2023-02-27T09:22:54.895Z,7.87
2023-02-27T09:25:00.283Z,7.96
2023-02-27T09:27:04.674Z,8.06
2023-02-27T09:29:09.346Z,8.11
2023-02-27T09:31:15.043Z,8.16
2023-02-27T09:33:19.757Z,8.24
2023-02-27T09:35:25.682Z,8.29
2023-02-27T09:37:32.932Z,8.27
2023-02-27T09:39:37.405Z,8.21
2023-02-27T09:41:50.867Z,8.17
2023-02-27T09:43:55.546Z,8.18
2023-02-27T09:46:01.173Z,8.24
2023-02-27T09:48:09.120Z,8.31
2023-02-27T09:50:24.360Z,8.37
2023-02-27T09:52:29.594Z,8.43
2023-02-27T09:54:36.972Z,8.45
2023-02-27T09:56:44.883Z,8.47
2023-02-27T09:58:53.864Z,8.48
2023-02-27T10:01:03.396Z,8.47
2023-02-27T10:03:12.449Z,8.46
2023-02-27T10:05:20.898Z,8.44
2023-02-27T10:07:32.280Z,8.39
2023-02-27T10:09:54.612Z,8.34
2023-02-27T10:12:10.580Z,8.29
2023-02-27T10:14:24.174Z,8.26
2023-02-27T10:16:30.125Z,8.23
2023-02-27T10:18:36.698Z,8.19
2023-02-27T10:20:44.490Z,8.18
2023-02-27T10:22:51.574Z,8.15
2023-02-27T10:25:02.070Z,8.13
2023-02-27T10:27:08.777Z,8.10
2023-02-27T10:29:18.132Z,8.06
2023-02-27T10:31:26.028Z,8.07
2023-02-27T10:33:35.061Z,8.04
2023-02-27T10:35:42.386Z,8.02
2023-02-27T10:37:49.880Z,7.99
2023-02-27T10:39:56.341Z,7.96
2023-02-27T10:42:07.176Z,7.94
2023-02-27T10:44:14.473Z,7.93
2023-02-27T10:46:22.264Z,7.91
2023-02-27T10:48:26.694Z,7.90
2023-02-27T10:50:32.145Z,7.90
2023-02-27T10:52:36.497Z,7.89
2023-02-27T10:54:41.106Z,7.89
2023-02-27T10:56:47.716Z,7.86
2023-02-27T10:59:04.094Z,7.85
2023-02-27T11:01:09.778Z,7.85
2023-02-27T11:03:21.653Z,7.84
2023-02-27T11:05:28.377Z,7.86
2023-02-27T11:07:33.889Z,7.88
2023-02-27T11:09:38.918Z,7.88
2023-02-27T11:11:43.858Z,7.89
2023-02-27T11:13:48.710Z,7.91
2023-02-27T11:16:04.255Z,7.92
2023-02-27T11:18:23.668Z,7.92
2023-02-27T11:20:36.153Z,7.91
2023-02-27T11:22:41.731Z,7.91
2023-02-27T11:24:46.198Z,7.91
2023-02-27T11:26:57.787Z,7.91
2023-02-27T11:29:17.132Z,7.92
2023-02-27T11:31:25.601Z,7.92
2023-02-27T11:33:31.301Z,7.94
2023-02-27T11:35:37.304Z,7.95
2023-02-27T11:37:42.022Z,7.97
2023-02-27T11:39:51.733Z,7.98
2023-02-27T11:41:56.915Z,7.99
2023-02-27T11:44:01.863Z,8.00
2023-02-27T11:46:41.181Z,7.98
2023-02-27T11:48:37.999Z,7.98
2023-02-27T11:50:52.123Z,7.98
2023-02-27T11:53:01.858Z,7.96
2023-02-27T11:55:09.894Z,7.92
2023-02-27T11:57:21.117Z,7.91
2023-02-27T11:59:32.950Z,7.88
2023-02-27T12:01:42.866Z,7.88
2023-02-27T12:03:53.973Z,7.88
2023-02-27T12:06:00.369Z,7.88
2023-02-27T12:08:08.328Z,7.89
2023-02-27T12:10:15.521Z,7.89
2023-02-27T12:12:23.280Z,7.88
2023-02-27T12:14:29.883Z,7.86
2023-02-27T12:16:37.096Z,7.87
2023-02-27T12:18:44.455Z,7.85
2023-02-27T12:20:55.134Z,7.85
2023-02-27T12:22:59.531Z,7.85
2023-02-27T12:25:07.038Z,7.85
2023-02-27T12:27:15.968Z,7.86
2023-02-27T12:29:23.847Z,7.86
2023-02-27T12:31:45.236Z,7.86
2023-02-27T12:33:52.755Z,7.86
2023-02-27T12:36:03.146Z,7.89
2023-02-27T12:38:07.626Z,7.88
2023-02-27T12:40:17.273Z,7.90
2023-02-27T12:42:35.304Z,7.90
2023-02-27T12:44:50.316Z,7.92
2023-02-27T12:47:00.009Z,7.92
2023-02-27T12:49:19.856Z,7.92
2023-02-27T12:51:31.887Z,7.93
2023-02-27T12:53:45.296Z,7.95
2023-02-27T12:55:52.605Z,7.95
2023-02-27T12:58:11.827Z,7.97
2023-02-27T13:00:18.530Z,7.99
2023-02-27T13:02:32.118Z,8.00
2023-02-27T13:04:44.899Z,8.04
2023-02-27T13:06:54.500Z,8.07
2023-02-27T13:09:14.385Z,8.10
2023-02-27T13:11:26.310Z,8.16
2023-02-27T13:13:34.612Z,8.19
2023-02-27T13:15:42.351Z,8.26
2023-02-27T13:17:49.692Z,8.32
2023-02-27T13:19:55.949Z,8.37
2023-02-27T13:22:10.005Z,8.41
2023-02-27T13:24:23.907Z,8.42
2023-02-27T13:26:31.017Z,8.42
2023-02-27T13:28:35.478Z,8.42
2023-02-27T13:30:42.233Z,8.42
2023-02-27T13:32:49.628Z,8.43
2023-02-27T13:34:56.296Z,8.43
2023-02-27T13:37:04.938Z,8.43
2023-02-27T13:39:30.028Z,8.43
2023-02-27T13:41:41.085Z,8.42
2023-02-27T13:43:52.154Z,8.39
2023-02-27T13:45:59.693Z,8.37
2023-02-27T13:48:04.431Z,8.36
2023-02-27T13:50:23.836Z,8.31
2023-02-27T13:52:34.074Z,8.30
2023-02-27T13:54:42.751Z,8.28
2023-02-27T13:56:48.763Z,8.27
2023-02-27T13:58:53.477Z,8.25
2023-02-27T14:01:00.061Z,8.24
2023-02-27T14:03:09.034Z,8.23
2023-02-27T14:05:17.385Z,8.20
2023-02-27T14:07:23.772Z,8.19
2023-02-27T14:09:36.199Z,8.18
2023-02-27T14:11:42.098Z,8.16
2023-02-27T14:14:01.783Z,8.16
2023-02-27T14:16:08.005Z,8.16
2023-02-27T14:18:34.047Z,8.16
2023-02-27T14:20:52.708Z,8.15
2023-02-27T14:23:12.122Z,8.16
2023-02-27T14:25:24.162Z,8.15
2023-02-27T14:27:30.044Z,8.13
2023-02-27T14:29:36.235Z,8.12
2023-02-27T14:31:41.758Z,8.11
2023-02-27T14:33:48.369Z,8.11
2023-02-27T14:35:58.938Z,8.12
2023-02-27T14:38:05.535Z,8.14
2023-02-27T14:40:12.270Z,8.12
2023-02-27T14:42:29.142Z,8.12
2023-02-27T14:44:40.406Z,8.13
2023-02-27T14:46:44.790Z,8.13
2023-02-27T14:48:49.721Z,8.12
2023-02-27T14:50:57.980Z,8.12
2023-02-27T14:53:02.650Z,8.13
2023-02-27T14:55:16.975Z,8.12
2023-02-27T14:57:23.657Z,8.08
2023-02-27T14:59:33.429Z,8.06
2023-02-27T15:01:39.130Z,8.01
2023-02-27T15:03:47.913Z,8.00
2023-02-27T15:05:54.127Z,8.01
2023-02-27T15:07:58.668Z,8.01
2023-02-27T15:10:04.794Z,8.02
2023-02-27T15:12:09.463Z,8.03
2023-02-27T15:14:20.981Z,8.04
2023-02-27T15:16:38.420Z,8.04
2023-02-27T15:18:43.444Z,8.04
2023-02-27T15:20:48.050Z,8.04
2023-02-27T15:22:52.433Z,8.06
2023-02-27T15:24:57.244Z,8.08
2023-02-27T15:27:02.683Z,8.07
2023-02-27T15:29:08.155Z,8.07
2023-02-27T15:31:15.670Z,8.07
2023-02-27T15:33:26.005Z,8.05
2023-02-27T15:35:33.163Z,8.02
2023-02-27T15:37:37.534Z,8.02
2023-02-27T15:39:42.028Z,8.01
2023-02-27T15:41:48.673Z,8.01
2023-02-27T15:43:53.876Z,8.00
2023-02-27T15:45:58.864Z,8.01
2023-02-27T15:48:03.371Z,8.00
2023-02-27T15:50:12.499Z,7.97
2023-02-27T15:52:19.500Z,7.95
2023-02-27T15:54:24.151Z,7.92
2023-02-27T15:56:31.103Z,7.89
2023-02-27T15:58:36.502Z,7.88
2023-02-27T16:00:41.181Z,7.86
2023-02-27T16:02:47.698Z,7.84
2023-02-27T16:04:52.585Z,7.81
2023-02-27T16:07:04.440Z,7.80
2023-02-27T16:09:10.468Z,7.79
2023-02-27T16:11:20.449Z,7.78
2023-02-27T16:13:31.588Z,7.78
2023-02-27T16:15:38.393Z,7.77
2023-02-27T16:17:54.842Z,7.75
2023-02-27T16:20:01.773Z,7.75
2023-02-27T16:22:15.536Z,7.74
2023-02-27T16:24:23.867Z,7.74
2023-02-27T16:26:31.267Z,7.74
2023-02-27T16:28:36.850Z,7.74
2023-02-27T16:30:41.191Z,7.74
2023-02-27T16:32:46.760Z,7.73
2023-02-27T16:34:51.339Z,7.72
2023-02-27T16:36:57.072Z,7.72
2023-02-27T16:39:04.067Z,7.73
2023-02-27T16:41:08.594Z,7.73
2023-02-27T16:43:13.092Z,7.71
2023-02-27T16:45:18.565Z,7.68
2023-02-27T16:47:22.995Z,7.67
2023-02-27T16:49:28.833Z,7.69
2023-02-27T16:51:34.752Z,7.68
2023-02-27T16:53:39.083Z,7.66
2023-02-27T16:55:46.509Z,7.63
2023-02-27T16:57:51.071Z,7.62
2023-02-27T16:59:55.939Z,7.62
2023-02-27T17:02:00.736Z,7.62
2023-02-27T17:04:10.879Z,7.60
2023-02-27T17:06:24.600Z,7.62
2023-02-27T17:08:29.246Z,7.60
2023-02-27T17:10:33.575Z,7.59
2023-02-27T17:12:42.404Z,7.57
2023-02-27T17:14:48.001Z,7.54
2023-02-27T17:16:52.546Z,7.54
2023-02-27T17:18:57.165Z,7.54
2023-02-27T17:21:02.725Z,7.52
2023-02-27T17:23:07.058Z,7.52
2023-02-27T17:25:12.284Z,7.53
2023-02-27T17:27:16.950Z,7.50
2023-02-27T17:29:23.959Z,7.48
2023-02-27T17:31:28.598Z,7.44
2023-02-27T17:33:33.564Z,7.44
2023-02-27T17:35:38.065Z,7.44
2023-02-27T17:37:42.499Z,7.44
2023-02-27T17:39:46.901Z,7.46
2023-02-27T17:41:53.002Z,7.47
2023-02-27T17:43:58.159Z,7.48
2023-02-27T17:46:07.613Z,7.49
2023-02-27T17:48:12.824Z,7.48
2023-02-27T17:50:17.327Z,7.48
2023-02-27T17:52:21.818Z,7.47
2023-02-27T17:54:26.156Z,7.48
2023-02-27T17:56:30.863Z,7.46
2023-02-27T17:58:35.726Z,7.45
2023-02-27T18:00:40.142Z,7.45
2023-02-27T18:02:48.522Z,7.45
2023-02-27T18:04:53.158Z,7.44
2023-02-27T18:06:57.598Z,7.42
2023-02-27T18:09:01.924Z,7.40
2023-02-27T18:11:08.086Z,7.39
2023-02-27T18:13:12.661Z,7.39
2023-02-27T18:15:17.123Z,7.38
2023-02-27T18:17:21.656Z,7.36
2023-02-27T18:19:32.347Z,7.33
2023-02-27T18:21:37.561Z,7.30
2023-02-27T18:23:43.113Z,7.29
2023-02-27T18:25:55.702Z,7.26
2023-02-27T18:28:01.361Z,7.26
2023-02-27T18:30:06.037Z,7.24
2023-02-27T18:32:10.840Z,7.23
2023-02-27T18:34:15.946Z,7.22
2023-02-27T18:36:22.963Z,7.21
2023-02-27T18:38:27.413Z,7.16
2023-02-27T18:40:32.128Z,7.14
2023-02-27T18:42:36.705Z,7.09
2023-02-27T18:44:42.114Z,7.07
2023-02-27T18:46:46.540Z,7.03
2023-02-27T18:48:51.022Z,7.01
2023-02-27T18:50:55.363Z,6.99
2023-02-27T18:53:02.313Z,6.98
2023-02-27T18:55:07.104Z,6.97
2023-02-27T18:57:11.700Z,6.95
2023-02-27T18:59:16.092Z,6.91
2023-02-27T19:01:21.300Z,6.88
2023-02-27T19:03:25.724Z,6.86
2023-02-27T19:05:30.796Z,6.86
2023-02-27T19:07:35.196Z,6.84
2023-02-27T19:09:43.078Z,6.84
2023-02-27T19:11:48.065Z,6.81
2023-02-27T19:13:52.558Z,6.80
2023-02-27T19:15:57.317Z,6.80
2023-02-27T19:18:01.716Z,6.80
2023-02-27T19:20:06.963Z,6.81
2023-02-27T19:22:11.842Z,6.82
2023-02-27T19:24:16.897Z,6.85
2023-02-27T19:26:24.444Z,6.85
2023-02-27T19:28:28.809Z,6.84
2023-02-27T19:30:33.485Z,6.82
2023-02-27T19:32:38.030Z,6.83
2023-02-27T19:34:42.849Z,6.81
2023-02-27T19:36:47.198Z,6.80
2023-02-27T19:38:52.598Z,6.80
2023-02-27T19:40:56.922Z,6.81
2023-02-27T19:43:03.874Z,6.80
2023-02-27T19:45:08.773Z,6.81
2023-02-27T19:47:13.766Z,6.83
2023-02-27T19:49:18.147Z,6.81
2023-02-27T19:51:22.989Z,6.80
2023-02-27T19:53:28.036Z,6.79
2023-02-27T19:55:32.588Z,6.79
2023-02-27T19:57:37.455Z,6.76
2023-02-27T19:59:44.398Z,6.77
2023-02-27T20:01:48.756Z,6.77
2023-02-27T20:03:53.315Z,6.77
2023-02-27T20:05:58.161Z,6.78
2023-02-27T20:08:02.557Z,6.76
2023-02-27T20:10:07.570Z,6.74
2023-02-27T20:12:12.051Z,6.75
2023-02-27T20:14:17.834Z,6.77
2023-02-27T20:16:28.200Z,6.75
2023-02-27T20:18:32.958Z,6.74
2023-02-27T20:20:38.815Z,6.74
2023-02-27T20:22:44.697Z,6.76
2023-02-27T20:24:49.037Z,6.78
2023-02-27T20:26:54.301Z,6.79
2023-02-27T20:29:00.964Z,6.77
2023-02-27T20:31:10.178Z,6.74
2023-02-27T20:33:17.141Z,6.72
2023-02-27T20:35:21.651Z,6.73
2023-02-27T20:37:28.825Z,6.73
2023-02-27T20:39:33.352Z,6.75
2023-02-27T20:41:37.734Z,6.75
2023-02-27T20:43:42.938Z,6.73
2023-02-27T20:45:47.405Z,6.74
2023-02-27T20:47:51.777Z,6.73
2023-02-27T20:49:58.697Z,6.72
2023-02-27T20:52:03.093Z,6.72
2023-02-27T20:54:08.786Z,6.71
2023-02-27T20:56:13.456Z,6.68
2023-02-27T20:58:17.852Z,6.68
2023-02-27T21:00:22.914Z,6.67
2023-02-27T21:02:27.332Z,6.67
2023-02-27T21:04:43.227Z,6.65
2023-02-27T21:06:50.455Z,6.62
2023-02-27T21:08:56.014Z,6.62
2023-02-27T21:11:00.571Z,6.62
2023-02-27T21:13:05.132Z,6.61
2023-02-27T21:15:10.441Z,6.60
2023-02-27T21:17:15.276Z,6.60
2023-02-27T21:19:19.669Z,6.58
2023-02-27T21:21:25.594Z,6.57
2023-02-27T21:23:32.709Z,6.57
2023-02-27T21:25:37.075Z,6.54
2023-02-27T21:27:41.535Z,6.51
2023-02-27T21:29:45.906Z,6.48
2023-02-27T21:31:51.228Z,6.44
2023-02-27T21:33:55.713Z,6.43
2023-02-27T21:36:00.218Z,6.41
2023-02-27T21:38:05.392Z,6.41
2023-02-27T21:40:13.265Z,6.41
2023-02-27T21:42:17.620Z,6.41
2023-02-27T21:44:25.082Z,6.42
2023-02-27T21:46:29.676Z,6.43
2023-02-27T21:48:34.510Z,6.40
2023-02-27T21:50:38.948Z,6.38
2023-02-27T21:52:43.726Z,6.36
2023-02-27T21:54:48.056Z,6.35
2023-02-27T21:56:54.983Z,6.32
2023-02-27T21:59:02.181Z,6.31
2023-02-27T22:01:15.124Z,6.27
2023-02-27T22:03:19.919Z,6.27
2023-02-27T22:05:24.298Z,6.25
2023-02-27T22:07:28.765Z,6.22
2023-02-27T22:09:33.165Z,6.23
2023-02-27T22:11:37.795Z,6.26
2023-02-27T22:13:44.788Z,6.29
2023-02-27T22:15:49.174Z,6.27
2023-02-27T22:17:54.800Z,6.25
2023-02-27T22:19:59.165Z,6.21
2023-02-27T22:22:03.530Z,6.20
2023-02-27T22:24:09.168Z,6.18
2023-02-27T22:26:15.085Z,6.17
2023-02-27T22:28:19.432Z,6.15
2023-02-27T22:30:26.386Z,6.13
2023-02-27T22:32:31.018Z,6.10
2023-02-27T22:34:35.468Z,6.07
2023-02-27T22:36:41.668Z,6.05
2023-02-27T22:38:46.357Z,6.03
2023-02-27T22:40:50.951Z,6.01
2023-02-27T22:42:55.550Z,6.00
2023-02-27T22:44:59.894Z,5.99
2023-02-27T22:47:06.863Z,5.97
2023-02-27T22:49:13.210Z,5.96
2023-02-27T22:51:18.174Z,5.94
2023-02-27T22:53:22.642Z,5.93
2023-02-27T22:55:27.016Z,5.91
2023-02-27T22:57:31.346Z,5.89
2023-02-27T22:59:35.854Z,5.89
2023-02-27T23:01:40.630Z,5.88
2023-02-27T23:03:48.492Z,5.88
2023-02-27T23:05:53.221Z,5.87
2023-02-27T23:07:58.085Z,5.86
2023-02-27T23:10:02.407Z,5.85
2023-02-27T23:12:06.990Z,5.84
2023-02-27T23:14:11.326Z,5.84
2023-02-27T23:16:16.113Z,5.82
2023-02-27T23:18:20.568Z,5.81
2023-02-27T23:20:27.466Z,5.81
2023-02-27T23:22:33.675Z,5.79
2023-02-27T23:24:38.158Z,5.79
2023-02-27T23:26:43.404Z,5.75
2023-02-27T23:28:47.747Z,5.74
2023-02-27T23:30:52.389Z,5.72
2023-02-27T23:32:56.930Z,5.69
2023-02-27T23:35:01.260Z,5.68
2023-02-27T23:37:08.213Z,5.66
2023-02-27T23:39:12.531Z,5.65
2023-02-27T23:41:20.123Z,5.63
2023-02-27T23:43:24.884Z,5.63
2023-02-27T23:45:26.717Z,5.63
2023-02-27T23:47:51.812Z,5.63
2023-02-27T23:49:56.221Z,5.61
2023-02-27T23:52:00.547Z,5.59
2023-02-27T23:54:07.593Z,5.58
2023-02-27T23:56:18.733Z,5.57
2023-02-27T23:58:23.274Z,5.55
